Time;durP1;ratioP1;P1;durP2;ratioP2;P2;SDS_P1;SDS_P2;PMS_P1;PMS_P2;Temp;Humidity;BMP_temperature;BMP_pressure;BME280_temperature;BME280_humidity;BME280_pressure;Samples;Min_cycle;Max_cycle;Signal;HPM_P1;HPM_P2
2023/03/16 00:00:32;;;;;;;3.57;1.50;;;;;;;-0.26;78.81;101332.25;4988484;28;20286;-69
2023/03/16 00:02:58;;;;;;;3.83;1.60;;;;;;;-0.24;78.87;101338.34;4996583;28;20219;-69
2023/03/16 00:05:25;;;;;;;3.67;1.90;;;;;;;-0.23;79.04;101340.09;4984270;28;20847;-69
2023/03/16 00:07:51;;;;;;;3.47;1.30;;;;;;;-0.22;79.23;101341.81;4988488;28;20501;-69
2023/03/16 00:10:18;;;;;;;3.97;1.80;;;;;;;-0.20;79.20;101342.69;4985398;28;20246;-69
2023/03/16 00:12:45;;;;;;;4.23;2.10;;;;;;;-0.20;79.41;101340.06;4988546;28;20607;-68
2023/03/16 00:15:13;;;;;;;5.73;1.90;;;;;;;-0.20;79.08;101344.44;4984550;28;20203;-68
2023/03/16 00:17:39;;;;;;;3.63;1.40;;;;;;;-0.20;79.08;101341.81;4987178;28;20212;-69
2023/03/16 00:20:07;;;;;;;3.83;1.63;;;;;;;-0.21;79.19;101340.94;4984386;28;20211;-69
2023/03/16 00:22:34;;;;;;;4.50;2.13;;;;;;;-0.21;79.33;101340.09;4984752;28;20657;-69
2023/03/16 00:25:01;;;;;;;2.07;1.50;;;;;;;-0.21;79.32;101345.31;4985707;28;20647;-68
2023/03/16 00:27:27;;;;;;;4.60;1.60;;;;;;;-0.22;79.33;101341.81;4988256;28;20215;-68
2023/03/16 00:29:55;;;;;;;4.33;1.63;;;;;;;-0.21;79.62;101337.47;4987696;28;20210;-69
2023/03/16 00:32:25;;;;;;;4.43;1.90;;;;;;;-0.22;79.33;101333.97;4987843;28;20211;-68
2023/03/16 00:34:52;;;;;;;2.10;1.40;;;;;;;-0.22;79.49;101338.34;4985237;28;20212;-69
2023/03/16 00:37:22;;;;;;;4.07;1.50;;;;;;;-0.22;79.60;101341.81;4985330;28;20211;-69
2023/03/16 00:39:49;;;;;;;1.53;1.30;;;;;;;-0.22;79.36;101330.50;4987668;28;20261;-69
2023/03/16 00:42:17;;;;;;;5.00;1.87;;;;;;;-0.24;79.75;101333.13;4984761;28;20226;-69
2023/03/16 00:44:44;;;;;;;4.50;1.30;;;;;;;-0.25;79.73;101334.00;4990155;28;20199;-69
2023/03/16 00:47:13;;;;;;;3.67;1.40;;;;;;;-0.26;79.83;101327.03;4985924;28;20212;-68
2023/03/16 00:49:42;;;;;;;3.40;1.40;;;;;;;-0.25;79.69;101327.88;4991002;28;20211;-69
2023/03/16 00:52:13;;;;;;;5.50;1.60;;;;;;;-0.25;79.59;101328.75;4994585;28;20246;-69
2023/03/16 00:54:42;;;;;;;5.17;1.67;;;;;;;-0.26;79.39;101328.78;4994205;28;20648;-68
2023/03/16 00:57:10;;;;;;;3.00;1.30;;;;;;;-0.28;79.39;101318.31;4990631;28;20235;-68
2023/03/16 00:59:37;;;;;;;3.97;1.40;;;;;;;-0.30;79.25;101314.84;4992337;28;20210;-69
2023/03/16 01:02:04;;;;;;;3.10;1.43;;;;;;;-0.30;79.37;101313.97;4991199;28;20239;-68
2023/03/16 01:04:31;;;;;;;2.90;1.13;;;;;;;-0.31;79.40;101318.31;4991440;28;20735;-68
2023/03/16 01:06:59;;;;;;;5.97;1.90;;;;;;;-0.31;79.37;101318.31;4988405;28;20195;-69
2023/03/16 01:09:25;;;;;;;3.00;1.40;;;;;;;-0.31;79.55;101317.47;4990060;28;20199;-69
2023/03/16 01:11:53;;;;;;;6.73;1.50;;;;;;;-0.32;79.36;101315.72;4989851;28;20709;-69
2023/03/16 01:14:20;;;;;;;2.73;1.40;;;;;;;-0.33;79.31;101317.47;4988028;28;20203;-69
2023/03/16 01:16:47;;;;;;;3.57;1.40;;;;;;;-0.35;79.31;101314.88;4986072;28;20214;-69
2023/03/16 01:19:14;;;;;;;1.87;1.07;;;;;;;-0.34;79.19;101315.72;4996548;28;20671;-69
2023/03/16 01:21:42;;;;;;;1.90;1.00;;;;;;;-0.33;79.36;101312.22;4988694;28;20227;-69
2023/03/16 01:24:10;;;;;;;4.00;1.07;;;;;;;-0.31;79.16;101307.00;4988364;28;20235;-69
2023/03/16 01:26:37;;;;;;;3.93;1.30;;;;;;;-0.30;79.06;101309.59;4987268;28;20239;-69
2023/03/16 01:29:04;;;;;;;2.50;1.43;;;;;;;-0.30;79.09;101312.22;4990297;28;20200;-69
2023/03/16 01:31:30;;;;;;;2.60;1.20;;;;;;;-0.31;78.67;101313.09;4989034;28;20863;-69
2023/03/16 01:33:57;;;;;;;3.53;1.37;;;;;;;-0.32;78.59;101307.88;4989655;28;20212;-68
2023/03/16 01:36:24;;;;;;;3.70;1.67;;;;;;;-0.33;78.68;101311.38;4991224;28;20207;-68
2023/03/16 01:38:50;;;;;;;3.63;1.20;;;;;;;-0.36;78.59;101307.88;4993610;28;20219;-69
2023/03/16 01:41:18;;;;;;;2.00;1.30;;;;;;;-0.38;78.66;101306.19;4995860;23;20223;-79
2023/03/16 01:43:45;;;;;;;2.83;1.30;;;;;;;-0.39;78.39;101307.94;4992951;28;20231;-79
2023/03/16 01:46:18;;;;;;;4.10;1.30;;;;;;;-0.40;78.50;101300.97;4989872;28;20291;-79
2023/03/16 01:48:52;;;;;;;3.00;1.03;;;;;;;-0.40;78.37;101307.94;4973938;28;20267;-79
2023/03/16 01:51:23;;;;;;;2.07;1.43;;;;;;;-0.42;78.14;101304.47;4973392;28;20203;-79
2023/03/16 01:53:55;;;;;;;3.77;1.20;;;;;;;-0.44;78.04;101311.47;4971665;28;20205;-79
2023/03/16 01:56:27;;;;;;;5.83;1.80;;;;;;;-0.48;78.48;101301.91;4970282;28;20580;-79
2023/03/16 01:58:57;;;;;;;7.17;1.50;;;;;;;-0.49;78.43;101308.88;4972642;28;20257;-79
2023/03/16 02:01:26;;;;;;;3.23;1.40;;;;;;;-0.53;78.07;101299.31;4971717;28;20197;-80
2023/03/16 02:03:57;;;;;;;3.07;1.07;;;;;;;-0.57;78.18;101300.22;4974287;28;20233;-80
2023/03/16 02:06:24;;;;;;;2.17;1.10;;;;;;;-0.59;78.22;101302.00;4974226;28;20204;-79
2023/03/16 02:08:54;;;;;;;2.83;1.10;;;;;;;-0.61;78.50;101297.66;4969350;28;20742;-80
2023/03/16 02:11:23;;;;;;;3.37;1.23;;;;;;;-0.65;78.41;101302.03;4967947;28;20211;-80
2023/03/16 02:13:51;;;;;;;3.43;1.00;;;;;;;-0.65;78.48;101301.16;4969731;28;20414;-80
2023/03/16 02:16:21;;;;;;;3.20;1.00;;;;;;;-0.66;78.58;101300.28;4974623;28;20208;-80
2023/03/16 02:18:48;;;;;;;2.43;1.50;;;;;;;-0.67;78.71;101305.53;4969762;28;20234;-80
2023/03/16 02:21:24;;;;;;;3.57;1.50;;;;;;;-0.68;78.88;101304.66;4973133;28;20212;-80
2023/03/16 02:23:50;;;;;;;3.33;1.50;;;;;;;-0.66;78.81;101302.03;4965354;28;20241;-80
2023/03/16 02:26:29;;;;;;;3.97;1.60;;;;;;;-0.63;78.79;101294.16;4972215;28;20211;-80
2023/03/16 02:29:09;;;;;;;5.70;1.50;;;;;;;-0.62;79.01;101294.16;4971515;28;20227;-80
2023/03/16 02:31:37;;;;;;;3.47;1.67;;;;;;;-0.60;79.17;101288.91;4966606;28;20208;-80
2023/03/16 02:34:04;;;;;;;3.07;1.47;;;;;;;-0.60;78.92;101291.53;4968640;28;20200;-80
2023/03/16 02:36:32;;;;;;;3.60;1.40;;;;;;;-0.61;79.19;101288.06;4968826;28;20208;-80
2023/03/16 02:38:58;;;;;;;3.27;1.43;;;;;;;-0.60;79.50;101286.31;4974181;28;20611;-79
2023/03/16 02:41:25;;;;;;;3.87;1.60;;;;;;;-0.60;79.37;101281.06;4973889;28;20223;-80
2023/03/16 02:43:55;;;;;;;2.60;1.40;;;;;;;-0.61;79.40;101280.19;4972308;28;20216;-80
2023/03/16 02:46:25;;;;;;;4.13;1.57;;;;;;;-0.62;79.56;101280.22;4968342;28;20204;-80
2023/03/16 02:49:03;;;;;;;3.23;1.30;;;;;;;-0.64;79.11;101279.34;4969422;28;20228;-80
2023/03/16 02:51:31;;;;;;;1.77;1.13;;;;;;;-0.67;79.56;101272.38;4969221;28;20211;-80
2023/03/16 02:53:58;;;;;;;2.90;1.30;;;;;;;-0.67;79.33;101272.38;4970563;28;20212;-80
2023/03/16 02:56:24;;;;;;;4.40;1.80;;;;;;;-0.69;79.64;101266.28;4972993;28;20222;-80
2023/03/16 02:58:51;;;;;;;2.57;1.63;;;;;;;-0.70;79.53;101254.97;4972628;28;20228;-80
2023/03/16 03:01:17;;;;;;;2.60;1.30;;;;;;;-0.71;79.30;101248.00;4971063;28;20233;-80
2023/03/16 03:03:44;;;;;;;3.80;1.57;;;;;;;-0.70;79.55;101254.97;4974658;28;20243;-80
2023/03/16 03:06:12;;;;;;;3.37;1.30;;;;;;;-0.72;79.71;101256.72;4972656;28;20215;-80
2023/03/16 03:08:38;;;;;;;3.87;1.33;;;;;;;-0.71;79.53;101253.22;4972993;28;20243;-80
2023/03/16 03:11:05;;;;;;;3.93;1.60;;;;;;;-0.71;79.38;101258.47;4971917;28;20704;-80
2023/03/16 03:13:32;;;;;;;4.73;1.63;;;;;;;-0.71;79.75;101252.34;4972933;28;20211;-80
2023/03/16 03:15:58;;;;;;;2.77;1.40;;;;;;;-0.70;79.95;101251.47;4964016;28;20299;-80
2023/03/16 03:18:25;;;;;;;3.17;1.10;;;;;;;-0.71;79.81;101250.63;4969224;28;20304;-80
2023/03/16 03:20:52;;;;;;;4.50;1.53;;;;;;;-0.69;79.82;101255.84;4971822;28;20203;-80
2023/03/16 03:23:19;;;;;;;4.87;1.40;;;;;;;-0.67;79.69;101248.84;4968235;28;20205;-80
2023/03/16 03:25:46;;;;;;;2.97;1.63;;;;;;;-0.66;79.92;101247.97;4969829;28;20827;-80
2023/03/16 03:28:13;;;;;;;2.80;1.80;;;;;;;-0.63;80.02;101247.94;4972215;28;20228;-80
2023/03/16 03:30:40;;;;;;;5.53;1.47;;;;;;;-0.62;79.84;101249.69;4967481;28;20613;-80
2023/03/16 03:33:07;;;;;;;2.50;1.23;;;;;;;-0.60;79.57;101244.44;4969771;28;20212;-80
2023/03/16 03:35:33;;;;;;;2.67;1.50;;;;;;;-0.60;79.67;101253.16;4963175;28;20221;-80
2023/03/16 03:37:59;;;;;;;4.07;1.83;;;;;;;-0.58;79.24;101250.53;4973083;28;20228;-80
2023/03/16 03:40:27;;;;;;;3.53;1.30;;;;;;;-0.56;79.57;101249.66;4994821;22;20246;-76
2023/03/16 03:42:54;;;;;;;3.03;1.13;;;;;;;-0.54;79.42;101257.50;4960769;28;20228;-75
2023/03/16 03:45:20;;;;;;;4.13;1.20;;;;;;;-0.54;79.38;101257.50;4959779;28;20228;-76
2023/03/16 03:47:47;;;;;;;2.20;1.10;;;;;;;-0.53;79.19;101256.56;4971871;28;20208;-75
2023/03/16 03:50:14;;;;;;;2.63;1.33;;;;;;;-0.52;79.24;101261.78;4963615;28;20263;-76
2023/03/16 03:52:41;;;;;;;6.87;1.50;;;;;;;-0.51;79.28;101257.44;4955315;28;20229;-75
2023/03/16 03:55:08;;;;;;;5.93;1.20;;;;;;;-0.50;79.50;101259.16;4965418;28;20207;-75
2023/03/16 03:57:40;;;;;;;1.43;1.00;;;;;;;-0.50;79.08;101259.16;4963737;28;20372;-76
2023/03/16 04:00:10;;;;;;;4.40;1.27;;;;;;;-0.51;78.80;101255.69;4966783;28;20288;-75
2023/03/16 04:02:36;;;;;;;3.83;1.10;;;;;;;-0.48;78.68;101257.41;4968681;28;20215;-76
2023/03/16 04:05:03;;;;;;;3.00;1.23;;;;;;;-0.45;78.21;101258.25;4966432;28;20591;-75
2023/03/16 04:07:30;;;;;;;1.77;1.20;;;;;;;-0.42;78.47;101258.25;4961940;28;20208;-76
2023/03/16 04:09:56;;;;;;;4.20;1.30;;;;;;;-0.38;78.41;101248.63;4960043;28;20208;-75
2023/03/16 04:12:23;;;;;;;3.83;1.20;;;;;;;-0.38;78.40;101246.88;4965567;28;20232;-75
2023/03/16 04:14:51;;;;;;;2.47;1.33;;;;;;;-0.37;78.53;101247.75;4965318;28;20680;-75
2023/03/16 04:17:18;;;;;;;3.63;1.40;;;;;;;-0.37;78.11;101252.97;4966364;28;20258;-75
2023/03/16 04:19:44;;;;;;;2.20;1.10;;;;;;;-0.37;77.95;101250.34;4966241;28;20220;-75
2023/03/16 04:22:11;;;;;;;3.60;1.30;;;;;;;-0.37;77.96;101260.81;4964254;28;20602;-75
2023/03/16 04:24:38;;;;;;;4.10;1.20;;;;;;;-0.39;77.63;101258.22;4963092;28;20713;-75
2023/03/16 04:27:05;;;;;;;2.27;1.23;;;;;;;-0.39;77.55;101268.69;4963755;28;20283;-75
2023/03/16 04:29:31;;;;;;;3.83;1.47;;;;;;;-0.40;77.67;101271.31;4967960;28;20216;-75
2023/03/16 04:31:59;;;;;;;5.77;1.77;;;;;;;-0.40;77.57;101260.84;4963852;28;20236;-75
2023/03/16 04:34:26;;;;;;;4.00;1.67;;;;;;;-0.41;77.65;101259.97;4965922;28;20208;-75
2023/03/16 04:36:53;;;;;;;2.97;1.50;;;;;;;-0.42;77.52;101263.47;4963421;28;20474;-75
2023/03/16 04:39:20;;;;;;;6.23;1.40;;;;;;;-0.41;77.85;101264.34;4970462;28;20209;-76
2023/03/16 04:41:46;;;;;;;3.77;1.20;;;;;;;-0.41;77.95;101259.09;4963583;28;20243;-75
2023/03/16 04:44:13;;;;;;;2.73;1.30;;;;;;;-0.41;77.54;101254.75;4962788;28;20483;-75
2023/03/16 04:46:40;;;;;;;4.67;1.40;;;;;;;-0.42;77.83;101249.53;4958762;28;20215;-74
2023/03/16 04:49:08;;;;;;;4.70;1.40;;;;;;;-0.43;77.61;101255.63;4967860;28;20585;-75
2023/03/16 04:51:36;;;;;;;5.07;1.47;;;;;;;-0.44;77.94;101253.91;4963077;28;20235;-76
2023/03/16 04:54:03;;;;;;;2.63;1.30;;;;;;;-0.45;78.00;101252.16;4960336;28;20200;-75
2023/03/16 04:56:29;;;;;;;3.23;1.10;;;;;;;-0.48;77.68;101255.66;4963498;28;20205;-75
2023/03/16 04:58:56;;;;;;;3.23;1.63;;;;;;;-0.50;77.80;101254.81;4960452;28;20208;-75
2023/03/16 05:01:23;;;;;;;2.27;1.20;;;;;;;-0.51;77.92;101255.69;4961554;28;20256;-75
2023/03/16 05:03:51;;;;;;;2.63;1.40;;;;;;;-0.52;77.85;101251.34;4960667;28;20207;-74
2023/03/16 05:06:19;;;;;;;6.37;1.43;;;;;;;-0.52;77.66;101246.09;4958629;28;20453;-75
2023/03/16 05:08:46;;;;;;;2.97;1.20;;;;;;;-0.54;78.14;101255.75;4962381;28;20235;-75
2023/03/16 05:11:12;;;;;;;4.23;1.07;;;;;;;-0.54;78.20;101260.09;4966289;28;20609;-76
2023/03/16 05:13:39;;;;;;;3.77;1.80;;;;;;;-0.55;78.13;101271.44;4964151;28;20211;-74
2023/03/16 05:16:06;;;;;;;4.60;1.20;;;;;;;-0.58;78.11;101259.25;4958660;28;20208;-75
2023/03/16 05:18:33;;;;;;;2.10;1.23;;;;;;;-0.58;78.33;101268.84;4968221;28;20786;-76
2023/03/16 05:20:59;;;;;;;3.87;1.30;;;;;;;-0.60;78.34;101252.28;4963639;28;20224;-75
2023/03/16 05:23:27;;;;;;;2.10;1.47;;;;;;;-0.62;78.43;101254.91;4966461;28;20357;-75
2023/03/16 05:25:55;;;;;;;2.20;1.27;;;;;;;-0.62;78.50;101269.75;4963690;28;20231;-75
2023/03/16 05:28:22;;;;;;;3.30;1.50;;;;;;;-0.63;78.12;101268.00;4960378;28;20271;-75
2023/03/16 05:30:48;;;;;;;5.77;1.30;;;;;;;-0.64;78.38;101255.81;4955612;28;20722;-75
2023/03/16 05:33:15;;;;;;;3.43;1.43;;;;;;;-0.64;78.69;101258.41;4963505;28;20220;-76
2023/03/16 05:35:41;;;;;;;5.20;1.80;;;;;;;-0.65;78.86;101256.69;4960217;28;20215;-76
2023/03/16 05:38:08;;;;;;;2.10;1.40;;;;;;;-0.64;78.85;101258.41;4963506;28;20212;-75
2023/03/16 05:40:37;;;;;;;2.77;1.40;;;;;;;-0.63;78.98;101249.69;4965147;28;20689;-75
2023/03/16 05:43:03;;;;;;;2.07;1.20;;;;;;;-0.61;78.97;101247.94;4971212;28;20235;-75
2023/03/16 05:45:30;;;;;;;5.20;1.50;;;;;;;-0.60;79.11;101239.22;4958522;28;20279;-76
2023/03/16 05:47:57;;;;;;;3.27;1.80;;;;;;;-0.59;79.39;101241.81;4963636;28;20689;-75
2023/03/16 05:50:23;;;;;;;2.63;1.10;;;;;;;-0.55;79.31;101245.28;4964258;28;20323;-75
2023/03/16 05:52:50;;;;;;;2.80;1.13;;;;;;;-0.54;79.34;101247.88;4959921;28;20285;-75
2023/03/16 05:55:17;;;;;;;3.10;1.50;;;;;;;-0.50;79.87;101244.34;4964958;28;20585;-75
2023/03/16 05:57:45;;;;;;;1.87;1.20;;;;;;;-0.46;79.97;101240.81;4959368;28;20212;-75
2023/03/16 06:00:15;;;;;;;4.07;1.50;;;;;;;-0.42;79.90;101241.66;4957680;28;20685;-75
2023/03/16 06:02:42;;;;;;;3.00;1.30;;;;;;;-0.37;79.70;101245.13;4961755;28;20363;-75
2023/03/16 06:05:09;;;;;;;4.30;1.40;;;;;;;-0.33;79.89;101227.63;4956378;28;20235;-75
2023/03/16 06:07:36;;;;;;;5.03;1.47;;;;;;;-0.27;80.21;101225.81;4960807;28;20724;-75
2023/03/16 06:10:04;;;;;;;2.53;1.20;;;;;;;-0.21;80.13;101230.13;4960103;28;20210;-76
2023/03/16 06:12:33;;;;;;;1.67;1.23;;;;;;;-0.15;80.27;101224.81;4958089;28;20224;-76
2023/03/16 06:15:01;;;;;;;3.53;1.27;;;;;;;-0.07;80.40;101225.63;4960261;28;20213;-75
2023/03/16 06:17:27;;;;;;;2.23;1.10;;;;;;;-0.01;80.24;101215.09;4961616;28;20696;-76
2023/03/16 06:19:54;;;;;;;4.17;1.50;;;;;;;0.05;80.27;101214.13;4957133;28;20200;-75
2023/03/16 06:22:20;;;;;;;3.07;1.80;;;;;;;0.11;80.44;101219.31;4960075;28;20240;-76
2023/03/16 06:24:47;;;;;;;3.37;1.50;;;;;;;0.17;80.40;101216.63;4955908;28;20239;-76
2023/03/16 06:27:14;;;;;;;2.57;1.30;;;;;;;0.22;80.29;101214.81;4962776;28;20643;-75
2023/03/16 06:29:40;;;;;;;3.17;1.50;;;;;;;0.29;80.41;101209.47;4969198;28;20212;-77
2023/03/16 06:32:08;;;;;;;2.50;1.50;;;;;;;0.35;80.43;101205.94;4974911;28;20220;-78
2023/03/16 06:34:35;;;;;;;8.67;1.60;;;;;;;0.42;79.97;101207.56;4969382;28;20223;-77
2023/03/16 06:37:02;;;;;;;2.13;1.37;;;;;;;0.49;80.24;101213.59;4975418;28;20291;-78
2023/03/16 06:39:29;;;;;;;2.93;1.20;;;;;;;0.57;79.99;101223.09;4974902;28;20204;-79
2023/03/16 06:41:56;;;;;;;4.23;1.73;;;;;;;0.65;79.87;101220.38;4972356;28;20305;-80
2023/03/16 06:44:23;;;;;;;2.93;1.53;;;;;;;0.74;79.53;101214.97;4977896;28;20290;-76
2023/03/16 06:46:49;;;;;;;6.33;1.57;;;;;;;0.81;79.06;101207.91;4978237;28;20240;-78
2023/03/16 06:49:17;;;;;;;2.63;1.43;;;;;;;0.89;79.19;101209.53;4977898;28;20225;-79
2023/03/16 06:51:44;;;;;;;3.33;1.47;;;;;;;0.97;79.03;101212.91;4974958;28;20221;-78
2023/03/16 06:54:10;;;;;;;3.53;1.60;;;;;;;1.04;78.54;101221.56;4978317;28;20208;-79
2023/03/16 06:56:37;;;;;;;4.83;1.37;;;;;;;1.13;78.21;101223.16;4978250;28;20428;-80
2023/03/16 06:59:04;;;;;;;3.87;1.30;;;;;;;1.23;78.19;101230.00;4980809;28;20208;-78
2023/03/16 07:01:30;;;;;;;2.40;1.57;;;;;;;1.32;77.85;101235.09;4975027;28;20292;-76
2023/03/16 07:03:57;;;;;;;3.60;1.40;;;;;;;1.40;77.54;101233.22;4976315;28;20234;-78
2023/03/16 07:06:25;;;;;;;2.97;1.30;;;;;;;1.50;77.33;101233.94;4981268;28;20244;-78
2023/03/16 07:08:51;;;;;;;1.20;1.10;;;;;;;1.56;77.05;101236.47;4981504;28;20240;-78
2023/03/16 07:11:18;;;;;;;2.10;1.23;;;;;;;1.64;77.00;101237.19;4983597;28;20271;-77
2023/03/16 07:13:45;;;;;;;3.27;1.27;;;;;;;1.70;76.57;101243.19;4976364;28;20430;-80
2023/03/16 07:16:12;;;;;;;4.10;2.10;;;;;;;1.80;76.11;101249.13;4979248;28;20275;-78
2023/03/16 07:18:38;;;;;;;4.77;1.40;;;;;;;1.87;75.55;101249.91;4971188;28;20674;-77
2023/03/16 07:21:05;;;;;;;2.93;1.17;;;;;;;1.95;75.16;101248.03;4979781;28;20208;-76
2023/03/16 07:23:33;;;;;;;2.33;1.10;;;;;;;2.02;75.14;101247.84;4972572;28;20212;-78
2023/03/16 07:26:00;;;;;;;6.47;1.90;;;;;;;2.08;74.74;101250.38;4975963;28;20307;-78
2023/03/16 07:28:28;;;;;;;4.47;2.23;;;;;;;2.17;74.78;101249.31;4970030;28;20711;-76
2023/03/16 07:30:55;;;;;;;6.17;1.60;;;;;;;2.25;73.80;101257.94;4970854;28;20242;-77
2023/03/16 07:33:21;;;;;;;2.80;1.30;;;;;;;2.34;73.05;101257.75;4969823;28;20296;-79
2023/03/16 07:35:48;;;;;;;2.43;1.33;;;;;;;2.40;72.26;101257.63;4979536;28;20311;-77
2023/03/16 07:38:15;;;;;;;4.37;2.30;;;;;;;2.47;71.96;101261.00;4979982;28;20204;-77
2023/03/16 07:40:43;;;;;;;2.03;1.20;;;;;;;2.50;71.94;101250.44;4975424;28;20220;-76
2023/03/16 07:43:09;;;;;;;3.70;1.10;;;;;;;2.57;72.08;101246.75;4977826;28;20274;-77
2023/03/16 07:45:36;;;;;;;2.50;1.57;;;;;;;2.61;71.38;101247.56;4983768;28;20231;-76
2023/03/16 07:48:02;;;;;;;4.30;1.30;;;;;;;2.68;70.18;101260.56;4978491;28;20673;-78
2023/03/16 07:50:29;;;;;;;4.03;1.30;;;;;;;2.74;69.93;101259.56;4970728;28;20208;-76
2023/03/16 07:52:56;;;;;;;5.57;1.50;;;;;;;2.78;69.71;101264.72;4972389;28;20312;-78
2023/03/16 07:55:22;;;;;;;4.60;1.30;;;;;;;2.83;69.05;101271.66;4974889;28;20210;-77
2023/03/16 07:57:50;;;;;;;2.10;1.10;;;;;;;2.90;69.04;101262.72;4977610;28;20212;-76
2023/03/16 08:00:22;;;;;;;2.70;1.17;;;;;;;2.99;69.11;101271.28;4976441;28;20222;-77
2023/03/16 08:02:49;;;;;;;1.67;1.00;;;;;;;3.08;68.82;101273.69;4972161;28;20243;-77
2023/03/16 08:05:16;;;;;;;2.67;1.10;;;;;;;3.17;68.21;101272.63;4971591;28;20260;-77
2023/03/16 08:07:43;;;;;;;4.97;1.37;;;;;;;3.26;67.31;101277.66;4976670;28;20322;-77
2023/03/16 08:10:11;;;;;;;5.33;1.40;;;;;;;3.37;67.23;101286.19;4973083;28;20595;-77
2023/03/16 08:12:37;;;;;;;3.20;1.30;;;;;;;3.49;67.36;101279.75;4973748;28;20305;-80
2023/03/16 08:15:06;;;;;;;3.17;1.20;;;;;;;3.58;66.11;101278.69;4972099;28;20192;-76
2023/03/16 08:17:33;;;;;;;2.43;0.90;;;;;;;3.66;65.81;101279.34;4974075;28;20204;-78
2023/03/16 08:20:00;;;;;;;3.20;1.00;;;;;;;3.70;65.26;101281.00;4970135;28;20674;-77
2023/03/16 08:22:26;;;;;;;3.23;1.00;;;;;;;3.75;64.80;101287.91;4973360;28;20234;-77
2023/03/16 08:24:53;;;;;;;5.63;1.33;;;;;;;3.81;64.43;101281.59;4976412;28;20204;-76
2023/03/16 08:27:20;;;;;;;5.77;1.00;;;;;;;3.89;63.87;101282.28;4977552;28;20234;-78
2023/03/16 08:29:51;;;;;;;2.57;1.13;;;;;;;3.96;63.87;101281.19;4974128;28;20217;-76
2023/03/16 08:32:19;;;;;;;3.03;0.97;;;;;;;4.06;63.00;101290.59;4973944;28;20238;-79
2023/03/16 08:34:46;;;;;;;2.93;1.27;;;;;;;4.13;62.58;101283.38;4979326;28;20271;-77
2023/03/16 08:37:15;;;;;;;2.10;1.00;;;;;;;4.25;62.34;101290.97;4976128;28;20219;-77
2023/03/16 08:39:42;;;;;;;3.60;1.10;;;;;;;4.38;61.71;101283.59;4978819;28;20239;-76
2023/03/16 08:42:09;;;;;;;3.83;1.13;;;;;;;4.46;61.35;101276.34;4969612;28;20247;-78
2023/03/16 08:44:36;;;;;;;3.50;0.90;;;;;;;4.53;61.02;101270.84;4976950;28;20209;-77
2023/03/16 08:47:04;;;;;;;3.43;0.90;;;;;;;4.63;60.05;101283.78;4977735;28;20263;-78
2023/03/16 08:49:32;;;;;;;3.10;1.20;;;;;;;4.75;60.08;101276.38;4979803;28;20204;-77
2023/03/16 08:51:59;;;;;;;2.73;1.40;;;;;;;4.91;59.88;101286.47;4976821;28;20230;-78
2023/03/16 08:54:26;;;;;;;4.17;1.20;;;;;;;4.99;59.65;101282.69;4976307;28;20337;-77
2023/03/16 08:56:52;;;;;;;4.67;1.30;;;;;;;5.13;59.29;101284.91;4970644;28;20213;-77
2023/03/16 08:59:19;;;;;;;2.57;1.33;;;;;;;5.25;58.47;101292.44;4978709;28;21124;-80
2023/03/16 09:01:46;;;;;;;4.43;1.73;;;;;;;5.32;58.07;101290.47;4981612;28;20239;-78
2023/03/16 09:04:13;;;;;;;2.73;1.00;;;;;;;5.40;57.81;101291.09;4976828;28;20208;-78
2023/03/16 09:06:41;;;;;;;3.57;1.37;;;;;;;5.50;57.82;101281.97;4969806;28;20232;-79
2023/03/16 09:09:08;;;;;;;3.83;1.33;;;;;;;5.65;57.20;101276.19;4980084;28;20206;-78
2023/03/16 09:11:35;;;;;;;2.20;1.00;;;;;;;5.75;56.46;101269.66;4978857;28;20237;-77
2023/03/16 09:14:02;;;;;;;2.17;1.07;;;;;;;5.83;56.75;101272.06;4981156;28;20218;-77
2023/03/16 09:16:29;;;;;;;4.33;1.17;;;;;;;5.96;55.58;101273.38;4984480;28;20220;-77
2023/03/16 09:18:57;;;;;;;3.57;1.17;;;;;;;6.04;55.51;101267.84;4984645;28;20295;-77
2023/03/16 09:21:24;;;;;;;1.60;1.03;;;;;;;6.17;53.67;101251.50;4982320;28;20319;-79
2023/03/16 09:23:53;;;;;;;3.93;1.03;;;;;;;6.26;54.10;101261.75;4982534;28;20204;-77
2023/03/16 09:26:19;;;;;;;2.67;1.07;;;;;;;6.39;54.55;101256.88;4987368;28;20255;-78
2023/03/16 09:28:46;;;;;;;3.33;1.00;;;;;;;6.50;54.32;101254.69;4984191;28;20208;-79
2023/03/16 09:31:18;;;;;;;2.40;0.87;;;;;;;6.61;52.67;101249.03;4984877;28;20212;-78
2023/03/16 09:33:45;;;;;;;3.20;1.40;;;;;;;6.68;52.12;101255.78;4981633;28;20204;-78
2023/03/16 09:36:12;;;;;;;3.37;1.90;;;;;;;6.73;51.96;101237.97;4983266;28;20208;-77
2023/03/16 09:38:39;;;;;;;1.80;1.43;;;;;;;6.80;52.56;101246.53;4981777;28;20248;-78
2023/03/16 09:41:10;;;;;;;1.53;0.90;;;;;;;6.84;51.93;101234.88;4982951;28;20255;-78
2023/03/16 09:43:53;;;;;;;3.00;1.70;;;;;;;6.86;51.34;101230.41;4979719;28;20210;-80
2023/03/16 09:46:27;;;;;;;1.73;0.80;;;;;;;6.84;51.79;101227.81;4977158;28;20319;-78
2023/03/16 09:48:54;;;;;;;3.00;1.10;;;;;;;6.83;50.29;101226.09;4980400;28;20372;-76
2023/03/16 09:51:27;;;;;;;3.87;1.13;;;;;;;6.81;50.97;101232.34;4981294;28;20208;-77
2023/03/16 09:54:01;;;;;;;3.97;1.20;;;;;;;6.81;50.64;101233.22;4978734;28;20219;-79
2023/03/16 09:56:34;;;;;;;2.53;0.90;;;;;;;6.83;50.69;101219.91;4982040;28;20209;-78
2023/03/16 09:59:01;;;;;;;1.23;0.90;;;;;;;6.82;49.89;101216.41;4989070;28;20209;-80
2023/03/16 10:01:57;;;;;;;2.77;1.13;;;;;;;6.86;50.45;101223.31;4983140;28;20240;-79
2023/03/16 10:04:38;;;;;;;2.40;1.27;;;;;;;6.92;50.79;101228.38;4979568;28;20272;-79
2023/03/16 10:07:20;;;;;;;3.93;1.10;;;;;;;6.98;50.46;101229.94;4977363;28;20250;-78
2023/03/16 10:09:55;;;;;;;2.67;1.10;;;;;;;7.02;50.42;101228.88;4975804;28;20247;-78
2023/03/16 10:12:29;;;;;;;4.07;1.60;;;;;;;7.06;49.69;101230.50;4984897;28;20224;-76
2023/03/16 10:14:59;;;;;;;4.13;1.23;;;;;;;7.14;49.31;101233.72;4981830;28;20235;-77
2023/03/16 10:17:30;;;;;;;4.63;1.50;;;;;;;7.25;49.77;101235.91;4980200;28;20215;-78
2023/03/16 10:20:01;;;;;;;3.67;1.37;;;;;;;7.31;48.93;101236.53;4977473;28;20222;-76
2023/03/16 10:22:32;;;;;;;4.20;1.27;;;;;;;7.39;48.64;101225.63;4978535;28;20228;-78
2023/03/16 10:25:06;;;;;;;2.00;1.00;;;;;;;7.46;48.81;101231.53;4981686;28;20221;-77
2023/03/16 10:27:37;;;;;;;2.73;0.80;;;;;;;7.54;49.13;101230.28;4980494;28;20246;-77
2023/03/16 10:30:11;;;;;;;2.00;0.90;;;;;;;7.60;47.91;101219.44;4980989;28;20220;-77
2023/03/16 10:32:37;;;;;;;2.83;1.00;;;;;;;7.66;48.19;101215.66;4979149;28;20242;-79
2023/03/16 10:35:14;;;;;;;3.63;1.03;;;;;;;7.73;48.96;101209.16;4981314;28;20625;-76
2023/03/16 10:37:41;;;;;;;1.83;1.07;;;;;;;7.83;48.34;101214.94;4969586;28;20212;-75
2023/03/16 10:40:11;;;;;;;3.40;1.17;;;;;;;7.89;48.23;101210.22;4965218;28;20223;-75
2023/03/16 10:42:40;;;;;;;2.43;0.90;;;;;;;7.97;47.28;101208.09;4967668;28;20252;-75
2023/03/16 10:45:22;;;;;;;1.17;0.90;;;;;;;8.07;47.70;101199.72;4968387;28;20212;-74
2023/03/16 10:47:49;;;;;;;4.40;1.00;;;;;;;8.14;47.13;101203.84;4968771;28;20203;-75
2023/03/16 10:50:16;;;;;;;2.17;0.93;;;;;;;8.20;47.11;101199.16;4969786;28;20799;-75
2023/03/16 10:52:45;;;;;;;1.90;0.90;;;;;;;8.26;45.97;101190.88;4963353;28;20231;-75
2023/03/16 10:55:19;;;;;;;3.47;1.00;;;;;;;8.29;46.18;101190.75;4971554;28;20642;-75
2023/03/16 10:57:52;;;;;;;2.60;1.10;;;;;;;8.34;46.78;101191.44;4968020;28;20215;-75
2023/03/16 11:00:25;;;;;;;2.53;1.10;;;;;;;8.43;47.24;101184.84;4972554;28;20201;-75
2023/03/16 11:02:54;;;;;;;5.13;1.10;;;;;;;8.52;46.27;101183.56;4964229;28;20228;-76
2023/03/16 11:05:28;;;;;;;1.83;0.93;;;;;;;8.53;45.64;101182.63;4971736;28;20204;-75
2023/03/16 11:07:59;;;;;;;1.53;0.90;;;;;;;8.57;45.32;101187.75;4971268;28;20224;-75
2023/03/16 11:10:30;;;;;;;3.10;1.10;;;;;;;8.63;45.42;101170.66;4968598;28;20211;-75
2023/03/16 11:13:04;;;;;;;2.10;0.90;;;;;;;8.72;45.59;101167.56;4969592;28;20271;-75
2023/03/16 11:15:37;;;;;;;1.97;1.27;;;;;;;8.77;45.65;101172.69;4973490;28;20193;-76
2023/03/16 11:18:04;;;;;;;3.53;1.10;;;;;;;8.86;45.59;101165.13;4965800;28;20196;-75
2023/03/16 11:20:34;;;;;;;1.77;1.10;;;;;;;8.90;44.11;101169.34;4970833;28;20212;-75
2023/03/16 11:23:07;;;;;;;2.10;0.90;;;;;;;8.91;44.76;101178.19;4972095;28;20229;-75
2023/03/16 11:25:40;;;;;;;1.27;1.03;;;;;;;8.88;44.20;101165.91;4965776;28;20243;-75
2023/03/16 11:28:15;;;;;;;2.53;0.90;;;;;;;8.92;43.30;101170.13;4970828;28;20216;-75
2023/03/16 11:30:47;;;;;;;3.13;0.97;;;;;;;8.92;43.94;101172.78;4967578;28;20674;-74
2023/03/16 11:33:15;;;;;;;2.93;1.20;;;;;;;8.93;44.17;101168.34;4967070;28;20232;-75